createdAt,value
2016-05-08T00:00:11.647Z,0
2016-05-08T00:01:08.400Z,0
2016-05-08T00:02:08.512Z,0
2016-05-08T00:03:11.296Z,0
2016-05-08T00:04:05.502Z,0
2016-05-08T00:05:08.380Z,0
2016-05-08T00:06:02.335Z,0
2016-05-08T00:07:08.104Z,0
2016-05-08T00:08:05.279Z,0
2016-05-08T00:09:02.375Z,0
2016-05-08T00:10:11.034Z,0
2016-05-08T00:11:05.506Z,0
2016-05-08T00:12:04.914Z,0
2016-05-08T00:13:05.042Z,0
2016-05-08T00:14:01.951Z,0
2016-05-08T00:15:07.937Z,0
2016-05-08T00:16:05.065Z,0
2016-05-08T00:17:01.678Z,0
2016-05-08T00:18:07.790Z,0
2016-05-08T00:19:10.777Z,0
2016-05-08T00:20:02.326Z,0
2016-05-08T00:21:01.641Z,0
2016-05-08T00:22:04.613Z,0
2016-05-08T00:23:01.601Z,0
2016-05-08T00:24:07.547Z,0
2016-05-08T00:25:01.707Z,0
2016-05-08T00:26:07.631Z,0
2016-05-08T00:27:01.243Z,0
2016-05-08T00:28:04.042Z,0
2016-05-08T00:29:07.311Z,0
2016-05-08T00:30:04.251Z,0
2016-05-08T00:31:04.207Z,0
2016-05-08T00:32:04.179Z,0
2016-05-08T00:33:01.525Z,0
2016-05-08T00:34:01.073Z,0
2016-05-08T00:35:01.030Z,0
2016-05-08T00:36:04.001Z,0
2016-05-08T00:37:04.223Z,0
2016-05-08T00:38:04.070Z,0
2016-05-08T00:39:04.150Z,0
2016-05-08T00:40:03.528Z,0
2016-05-08T00:41:00.592Z,0
2016-05-08T00:42:04.127Z,0
2016-05-08T00:43:01.661Z,0
2016-05-08T00:44:03.648Z,0
2016-05-08T00:45:03.791Z,0
2016-05-08T00:46:00.372Z,0
2016-05-08T00:47:00.688Z,0
2016-05-08T00:48:00.706Z,0
2016-05-08T00:49:03.255Z,0
2016-05-08T00:50:06.617Z,0
2016-05-08T00:51:03.369Z,0
2016-05-08T00:52:09.372Z,0
2016-05-08T00:53:06.453Z,0
2016-05-08T00:54:00.175Z,0
2016-05-08T00:55:06.740Z,0
2016-05-08T00:56:03.274Z,0
2016-05-08T00:57:03.089Z,0
2016-05-08T00:58:03.310Z,0
2016-05-08T00:59:02.969Z,0
2016-05-08T01:00:02.894Z,0
2016-05-08T01:01:03.069Z,0
2016-05-08T01:01:59.806Z,0
2016-05-08T01:02:59.761Z,0
2016-05-08T01:03:59.734Z,0
2016-05-08T01:04:59.767Z,0
2016-05-08T01:06:08.660Z,0
2016-05-08T01:06:59.601Z,0
2016-05-08T01:08:02.556Z,0
2016-05-08T01:09:00.464Z,0
2016-05-08T01:10:05.467Z,0
2016-05-08T01:11:02.330Z,0
2016-05-08T01:11:59.364Z,0
2016-05-08T01:13:05.304Z,0
2016-05-08T01:14:05.260Z,0
2016-05-08T01:14:59.372Z,0
2016-05-08T01:15:59.203Z,0
2016-05-08T01:17:02.347Z,0
2016-05-08T01:17:59.489Z,0
2016-05-08T01:18:59.055Z,0
2016-05-08T01:19:59.057Z,0
2016-05-08T01:20:58.810Z,0
2016-05-08T01:22:01.907Z,0
2016-05-08T01:23:07.894Z,0
2016-05-08T01:24:01.662Z,0
2016-05-08T01:24:58.634Z,0
2016-05-08T01:25:58.574Z,0
2016-05-08T01:26:58.686Z,0
2016-05-08T01:28:05.032Z,0
2016-05-08T01:29:05.130Z,0
2016-05-08T01:30:04.569Z,0
2016-05-08T01:31:01.697Z,0
2016-05-08T01:31:58.480Z,0
2016-05-08T01:33:04.484Z,0
2016-05-08T01:34:04.408Z,0
2016-05-08T01:35:01.536Z,0
2016-05-08T01:36:04.351Z,0
2016-05-08T01:37:01.666Z,0
2016-05-08T01:38:01.590Z,0
2016-05-08T01:39:04.235Z,0
2016-05-08T01:40:04.127Z,0
2016-05-08T01:41:01.302Z,0
2016-05-08T01:41:58.211Z,0
2016-05-08T01:43:04.104Z,0
2016-05-08T01:44:00.935Z,0
2016-05-08T01:44:57.579Z,0
2016-05-08T01:45:58.050Z,0
2016-05-08T01:46:57.787Z,0
2016-05-08T01:47:57.759Z,0
2016-05-08T01:49:01.011Z,0
2016-05-08T01:49:57.342Z,0
2016-05-08T01:51:06.657Z,0
2016-05-08T01:51:57.269Z,0
2016-05-08T01:53:00.553Z,0
2016-05-08T01:53:57.494Z,0
2016-05-08T01:55:00.622Z,0
2016-05-08T01:56:00.405Z,0
2016-05-08T01:57:06.486Z,0
2016-05-08T01:58:00.597Z,0
2016-05-08T01:59:00.303Z,0
2016-05-08T02:00:03.228Z,0
2016-05-08T02:01:03.028Z,0
2016-05-08T02:01:56.812Z,0
2016-05-08T02:02:57.064Z,0
2016-05-08T02:04:03.051Z,0
2016-05-08T02:04:56.819Z,0
2016-05-08T02:05:56.947Z,0
2016-05-08T02:06:59.904Z,0
2016-05-08T02:08:02.969Z,0
2016-05-08T02:08:57.002Z,0
2016-05-08T02:09:56.754Z,0
2016-05-08T02:10:59.930Z,0
2016-05-08T02:11:59.683Z,0
2016-05-08T02:12:56.826Z,0
2016-05-08T02:14:02.454Z,0
2016-05-08T02:14:59.550Z,0
2016-05-08T02:15:59.490Z,0
2016-05-08T02:16:56.648Z,0
2016-05-08T02:17:59.621Z,0
2016-05-08T02:18:59.404Z,0
2016-05-08T02:19:59.314Z,0
2016-05-08T02:20:56.112Z,0
2016-05-08T02:21:59.225Z,0
2016-05-08T02:22:59.462Z,0
2016-05-08T02:23:56.137Z,0
2016-05-08T02:25:08.545Z,0
2016-05-08T02:26:02.033Z,0
2016-05-08T02:26:55.988Z,0
2016-05-08T02:27:55.850Z,0
2016-05-08T02:29:01.791Z,0
2016-05-08T02:29:55.856Z,0
2016-05-08T02:30:55.796Z,0
2016-05-08T02:32:01.486Z,0
2016-05-08T02:32:55.927Z,0
2016-05-08T02:33:55.679Z,0
2016-05-08T02:35:01.666Z,0
2016-05-08T02:35:58.591Z,0
2016-05-08T02:36:55.562Z,0
2016-05-08T02:37:55.487Z,0
2016-05-08T02:39:01.474Z,0
2016-05-08T02:39:58.445Z,0
2016-05-08T02:41:01.573Z,0
2016-05-08T02:41:55.671Z,0
2016-05-08T02:42:58.783Z,0
2016-05-08T02:43:55.630Z,0
2016-05-08T02:44:58.384Z,0
2016-05-08T02:45:55.184Z,0
2016-05-08T02:46:55.339Z,0
2016-05-08T02:47:55.313Z,0
2016-05-08T02:48:55.129Z,0
2016-05-08T02:49:55.227Z,0
2016-05-08T02:50:55.231Z,0
2016-05-08T02:51:55.181Z,0
2016-05-08T02:52:55.143Z,0
2016-05-08T02:54:00.825Z,0
2016-05-08T02:54:55.067Z,0
2016-05-08T02:55:55.231Z,0
2016-05-08T02:56:55.020Z,0
2016-05-08T02:57:54.837Z,0
2016-05-08T02:58:58.217Z,0
2016-05-08T02:59:57.894Z,0
2016-05-08T03:00:58.680Z,0
2016-05-08T03:01:54.778Z,0
2016-05-08T03:03:00.765Z,0
2016-05-08T03:03:54.581Z,0
2016-05-08T03:04:57.647Z,0
2016-05-08T03:05:54.448Z,0
2016-05-08T03:06:54.404Z,0
2016-05-08T03:07:54.501Z,0
2016-05-08T03:09:00.473Z,0
2016-05-08T03:10:00.648Z,0
2016-05-08T03:11:00.401Z,0
2016-05-08T03:11:54.513Z,0
2016-05-08T03:12:57.922Z,0
2016-05-08T03:13:57.440Z,0
2016-05-08T03:15:00.037Z,0
2016-05-08T03:15:54.132Z,0
2016-05-08T03:16:57.090Z,0
2016-05-08T03:18:04.357Z,0
2016-05-08T03:18:53.845Z,0
2016-05-08T03:20:03.018Z,0
2016-05-08T03:20:53.976Z,0
2016-05-08T03:21:56.884Z,0
2016-05-08T03:22:53.824Z,0
2016-05-08T03:23:53.623Z,4
2016-05-08T03:25:05.814Z,4
2016-05-08T03:25:56.925Z,0
2016-05-08T03:26:56.648Z,0
2016-05-08T03:27:56.603Z,4
2016-05-08T03:28:56.559Z,4
2016-05-08T03:29:59.514Z,4
2016-05-08T03:30:59.331Z,4
2016-05-08T03:31:59.425Z,8
2016-05-08T03:32:56.586Z,4
2016-05-08T03:33:53.338Z,8
2016-05-08T03:34:59.308Z,8
2016-05-08T03:35:53.250Z,8
2016-05-08T03:36:53.393Z,12
2016-05-08T03:37:53.146Z,12
2016-05-08T03:38:53.085Z,12
2016-05-08T03:39:55.916Z,16
2016-05-08T03:40:53.200Z,16
2016-05-08T03:41:52.952Z,20
2016-05-08T03:42:57.347Z,24
2016-05-08T03:43:52.865Z,24
2016-05-08T03:45:01.836Z,28
2016-05-08T03:45:58.776Z,28
2016-05-08T03:46:55.732Z,36
2016-05-08T03:47:52.985Z,36
2016-05-08T03:48:58.691Z,40
2016-05-08T03:49:58.599Z,44
2016-05-08T03:50:59.056Z,48
2016-05-08T03:51:55.542Z,52
2016-05-08T03:52:52.451Z,60
2016-05-08T03:53:55.407Z,68
2016-05-08T03:54:55.770Z,72
2016-05-08T03:55:58.194Z,80
2016-05-08T03:56:55.478Z,84
2016-05-08T03:57:53.090Z,92
2016-05-08T03:58:52.108Z,100
2016-05-08T03:59:52.126Z,108
2016-05-08T04:00:55.083Z,116
2016-05-08T04:01:51.757Z,120
2016-05-08T04:02:55.025Z,132
2016-05-08T04:03:51.637Z,136
2016-05-08T04:04:52.124Z,144
2016-05-08T04:05:51.705Z,160
2016-05-08T04:06:51.739Z,164
2016-05-08T04:07:52.242Z,176
2016-05-08T04:08:51.729Z,184
2016-05-08T04:10:00.560Z,196
2016-05-08T04:10:54.860Z,204
2016-05-08T04:11:51.581Z,212
2016-05-08T04:12:52.083Z,220
2016-05-08T04:13:54.352Z,232
2016-05-08T04:15:00.495Z,244
2016-05-08T04:15:51.404Z,248
2016-05-08T04:16:54.297Z,260
2016-05-08T04:17:51.332Z,268
2016-05-08T04:18:54.271Z,280
2016-05-08T04:19:57.430Z,288
2016-05-08T04:20:51.199Z,300
2016-05-08T04:21:51.124Z,312
2016-05-08T04:22:54.298Z,320
2016-05-08T04:23:50.894Z,332
2016-05-08T04:24:50.975Z,340
2016-05-08T04:25:54.165Z,356
2016-05-08T04:26:50.903Z,368
2016-05-08T04:27:50.874Z,376
2016-05-08T04:28:53.658Z,388
2016-05-08T04:29:51.191Z,396
2016-05-08T04:30:53.756Z,408
2016-05-08T04:31:53.542Z,420
2016-05-08T04:32:50.637Z,432
2016-05-08T04:33:53.436Z,444
2016-05-08T04:34:56.580Z,448
2016-05-08T04:35:53.504Z,460
2016-05-08T04:36:53.461Z,472
2016-05-08T04:37:56.447Z,480
2016-05-08T04:38:56.778Z,492
2016-05-08T04:39:56.296Z,500
2016-05-08T04:40:59.691Z,512
2016-05-08T04:42:08.083Z,524
2016-05-08T04:42:53.023Z,532
2016-05-08T04:43:50.338Z,544
2016-05-08T04:44:53.327Z,552
2016-05-08T04:45:53.046Z,564
2016-05-08T04:46:53.035Z,572
2016-05-08T04:47:52.943Z,580
2016-05-08T04:48:52.742Z,592
2016-05-08T04:49:49.854Z,600
2016-05-08T04:50:52.843Z,612
2016-05-08T04:51:52.766Z,616
2016-05-08T04:52:49.910Z,624
2016-05-08T04:53:49.678Z,636
2016-05-08T04:54:53.337Z,644
2016-05-08T04:55:52.433Z,652
2016-05-08T04:56:52.546Z,664
2016-05-08T04:57:49.486Z,672
2016-05-08T04:58:49.659Z,680
2016-05-08T04:59:52.600Z,688
2016-05-08T05:00:49.556Z,692
2016-05-08T05:01:52.325Z,704
2016-05-08T05:02:49.109Z,712
2016-05-08T05:03:49.408Z,716
2016-05-08T05:04:55.380Z,724
2016-05-08T05:05:49.522Z,732
2016-05-08T05:06:49.072Z,740
2016-05-08T05:07:49.075Z,748
2016-05-08T05:08:49.219Z,756
2016-05-08T05:09:49.002Z,764
2016-05-08T05:10:48.739Z,768
2016-05-08T05:11:52.258Z,776
2016-05-08T05:12:52.010Z,784
2016-05-08T05:13:48.763Z,788
2016-05-08T05:14:48.719Z,796
2016-05-08T05:15:48.674Z,804
2016-05-08T05:16:48.490Z,808
2016-05-08T05:17:48.274Z,816
2016-05-08T05:18:51.542Z,824
2016-05-08T05:19:51.513Z,832
2016-05-08T05:20:48.485Z,840
2016-05-08T05:21:51.379Z,856
2016-05-08T05:22:48.756Z,864
2016-05-08T05:23:54.509Z,876
2016-05-08T05:24:51.121Z,888
2016-05-08T05:25:48.046Z,896
2016-05-08T05:26:48.189Z,908
2016-05-08T05:27:48.551Z,908
2016-05-08T05:28:48.069Z,912
2016-05-08T05:29:51.025Z,912
2016-05-08T05:30:48.590Z,916
2016-05-08T05:31:48.140Z,924
2016-05-08T05:32:50.892Z,928
2016-05-08T05:33:47.879Z,932
2016-05-08T05:34:47.851Z,940
2016-05-08T05:35:47.760Z,948
2016-05-08T05:36:50.716Z,952
2016-05-08T05:37:50.655Z,956
2016-05-08T05:38:47.596Z,964
2016-05-08T05:39:47.583Z,964
2016-05-08T05:40:47.555Z,972
2016-05-08T05:41:50.480Z,972
2016-05-08T05:42:47.778Z,980
2016-05-08T05:43:47.234Z,984
2016-05-08T05:44:50.237Z,992
2016-05-08T05:45:47.303Z,992
2016-05-08T05:46:47.258Z,996
2016-05-08T05:47:52.964Z,1004
2016-05-08T05:48:46.998Z,1008
2016-05-08T05:49:50.126Z,1012
2016-05-08T05:50:47.268Z,1020
2016-05-08T05:51:50.022Z,1024
2016-05-08T05:52:46.977Z,1032
2016-05-08T05:53:49.933Z,1036
2016-05-08T05:54:46.920Z,1040
2016-05-08T05:55:47.063Z,1052
2016-05-08T05:56:46.690Z,1052
2016-05-08T05:57:46.943Z,1056
2016-05-08T05:58:46.571Z,1068
2016-05-08T05:59:46.496Z,1072
2016-05-08T06:00:46.467Z,1080
2016-05-08T06:01:49.579Z,1084
2016-05-08T06:02:49.723Z,1088
2016-05-08T06:03:49.632Z,1092
2016-05-08T06:04:55.495Z,1104
2016-05-08T06:05:46.403Z,1112
2016-05-08T06:06:49.577Z,1112
2016-05-08T06:07:46.689Z,1124
2016-05-08T06:08:46.098Z,1124
2016-05-08T06:09:52.382Z,1132
2016-05-08T06:10:46.183Z,1140
2016-05-08T06:11:46.185Z,1148
2016-05-08T06:12:52.484Z,1152
2016-05-08T06:13:52.112Z,1164
2016-05-08T06:14:45.989Z,1168
2016-05-08T06:15:46.430Z,1176
2016-05-08T06:16:51.760Z,1184
2016-05-08T06:17:48.857Z,1192
2016-05-08T06:18:48.813Z,1204
2016-05-08T06:19:45.847Z,1208
2016-05-08T06:20:48.552Z,1216
2016-05-08T06:21:45.602Z,1228
2016-05-08T06:22:45.604Z,1236
2016-05-08T06:23:48.904Z,1244
2016-05-08T06:24:45.391Z,1252
2016-05-08T06:25:45.487Z,1260
2016-05-08T06:26:45.132Z,1268
2016-05-08T06:27:45.274Z,1280
2016-05-08T06:28:45.356Z,1288
2016-05-08T06:29:45.623Z,1300
2016-05-08T06:30:45.329Z,1308
2016-05-08T06:31:48.223Z,1320
2016-05-08T06:32:45.225Z,1332
2016-05-08T06:34:00.072Z,1344
2016-05-08T06:34:45.809Z,1352
2016-05-08T06:35:48.062Z,1360
2016-05-08T06:36:48.017Z,1372
2016-05-08T06:37:48.161Z,1380
2016-05-08T06:38:44.928Z,1388
2016-05-08T06:39:44.713Z,1400
2016-05-08T06:40:47.888Z,1412
2016-05-08T06:41:47.797Z,1420
2016-05-08T06:42:44.800Z,1428
2016-05-08T06:43:44.521Z,1440
2016-05-08T06:44:44.649Z,1448
2016-05-08T06:45:44.589Z,1456
2016-05-08T06:46:44.560Z,1468
2016-05-08T06:47:47.516Z,1480
2016-05-08T06:48:44.456Z,1488
2016-05-08T06:49:47.271Z,1500
2016-05-08T06:50:44.352Z,1504
2016-05-08T06:51:53.308Z,1516
2016-05-08T06:52:56.499Z,1524
2016-05-08T06:53:47.235Z,1528
2016-05-08T06:54:44.191Z,1536
2016-05-08T06:55:47.162Z,1544
2016-05-08T06:56:47.290Z,1552
2016-05-08T06:57:44.104Z,1556
2016-05-08T06:58:47.029Z,1564
2016-05-08T06:59:49.970Z,1572
2016-05-08T07:00:49.926Z,1588
2016-05-08T07:01:49.945Z,1588
2016-05-08T07:02:46.681Z,1600
2016-05-08T07:03:46.825Z,1608
2016-05-08T07:04:43.968Z,1612
2016-05-08T07:05:46.705Z,1616
2016-05-08T07:06:49.708Z,1624
2016-05-08T07:07:43.835Z,1632
2016-05-08T07:08:46.791Z,1636
2016-05-08T07:09:46.559Z,1644
2016-05-08T07:10:46.499Z,1656
2016-05-08T07:11:46.502Z,1656
2016-05-08T07:12:43.395Z,1664
2016-05-08T07:13:43.195Z,1668
2016-05-08T07:14:49.339Z,1680
2016-05-08T07:15:43.278Z,1684
2016-05-08T07:16:49.250Z,1688
2016-05-08T07:17:43.190Z,1696
2016-05-08T07:18:46.255Z,1704
2016-05-08T07:19:43.102Z,1708
2016-05-08T07:20:49.276Z,1716
2016-05-08T07:21:48.842Z,1724
2016-05-08T07:22:45.954Z,1732
2016-05-08T07:23:45.597Z,1736
2016-05-08T07:24:45.725Z,1744
2016-05-08T07:25:42.821Z,1752
2016-05-08T07:26:42.808Z,1756
2016-05-08T07:27:55.608Z,1764
2016-05-08T07:28:45.954Z,1768
2016-05-08T07:29:45.487Z,1776
2016-05-08T07:30:42.804Z,1784
2016-05-08T07:31:42.554Z,1788
2016-05-08T07:32:42.525Z,1796
2016-05-08T07:33:42.309Z,1800
2016-05-08T07:34:45.454Z,1808
2016-05-08T07:35:45.395Z,1808
2016-05-08T07:36:48.351Z,1808
2016-05-08T07:37:48.026Z,1816
2016-05-08T07:38:51.481Z,1820
2016-05-08T07:39:45.421Z,1836
2016-05-08T07:40:51.159Z,1832
2016-05-08T07:41:42.159Z,1840
2016-05-08T07:42:51.320Z,1844
2016-05-08T07:43:42.023Z,1852
2016-05-08T07:44:44.981Z,1856
2016-05-08T07:45:41.810Z,1852
2016-05-08T07:46:44.956Z,1864
2016-05-08T07:47:51.302Z,1872
2016-05-08T07:48:48.054Z,1872
2016-05-08T07:49:41.773Z,1880
2016-05-08T07:50:44.966Z,1880
2016-05-08T07:51:41.560Z,1888
2016-05-08T07:52:41.766Z,1884
2016-05-08T07:53:41.800Z,1888
2016-05-08T07:54:44.446Z,1892
2016-05-08T07:55:47.371Z,1892
2016-05-08T07:56:47.326Z,1896
2016-05-08T07:57:44.313Z,1896
2016-05-08T07:58:44.410Z,1888
2016-05-08T07:59:44.350Z,1900
2016-05-08T08:00:47.509Z,1900
2016-05-08T08:01:47.418Z,1900
2016-05-08T08:02:41.215Z,1908
2016-05-08T08:03:47.032Z,1912
2016-05-08T08:04:43.989Z,1912
2016-05-08T08:05:43.929Z,1904
2016-05-08T08:06:41.273Z,1908
2016-05-08T08:07:47.043Z,1912
2016-05-08T08:08:43.984Z,1916
2016-05-08T08:09:40.906Z,1916
2016-05-08T08:10:41.283Z,1916
2016-05-08T08:11:40.848Z,1920
2016-05-08T08:12:47.994Z,1920
2016-05-08T08:13:43.744Z,1928
2016-05-08T08:14:40.700Z,1928
2016-05-08T08:15:40.641Z,1916
2016-05-08T08:16:40.612Z,1924
2016-05-08T08:17:41.021Z,1928
2016-05-08T08:18:40.195Z,1924
2016-05-08T08:19:43.542Z,1932
2016-05-08T08:20:46.953Z,1936
2016-05-08T08:21:43.391Z,1936
2016-05-08T08:22:43.238Z,1932
2016-05-08T08:23:40.255Z,1936
2016-05-08T08:24:40.118Z,1932
2016-05-08T08:25:40.230Z,1928
2016-05-08T08:26:43.029Z,1940
2016-05-08T08:27:43.157Z,1928
2016-05-08T08:28:39.801Z,1940
2016-05-08T08:29:39.725Z,1944
2016-05-08T08:30:39.852Z,1944
2016-05-08T08:31:40.215Z,1948
2016-05-08T08:32:42.937Z,1952
2016-05-08T08:33:42.876Z,1952
2016-05-08T08:34:39.926Z,1948
2016-05-08T08:35:39.803Z,1956
2016-05-08T08:36:42.790Z,1960
2016-05-08T08:37:42.778Z,1964
2016-05-08T08:38:42.687Z,1964
2016-05-08T08:39:45.504Z,1972
2016-05-08T08:40:45.664Z,1968
2016-05-08T08:41:42.742Z,1968
2016-05-08T08:42:45.544Z,1968
2016-05-08T08:43:45.452Z,1976
2016-05-08T08:44:48.439Z,1972
2016-05-08T08:45:39.689Z,1976
2016-05-08T08:46:39.208Z,1976
2016-05-08T08:47:43.086Z,1976
2016-05-08T08:48:45.341Z,1976
2016-05-08T08:49:39.403Z,1976
2016-05-08T08:50:39.563Z,1976
2016-05-08T08:51:42.144Z,1976
2016-05-08T08:52:44.771Z,1980
2016-05-08T08:53:42.461Z,1976
2016-05-08T08:54:38.682Z,1976
2016-05-08T08:55:39.138Z,1976
2016-05-08T08:56:38.907Z,1972
2016-05-08T08:57:41.878Z,1980
2016-05-08T08:58:38.866Z,1976
2016-05-08T08:59:41.618Z,1976
2016-05-08T09:00:41.762Z,1980
2016-05-08T09:01:38.577Z,1984
2016-05-08T09:02:38.860Z,1980
2016-05-08T09:03:44.504Z,1988
2016-05-08T09:04:41.568Z,1992
2016-05-08T09:05:44.650Z,1992
2016-05-08T09:06:41.356Z,1992
2016-05-08T09:07:50.924Z,1992
2016-05-08T09:08:47.426Z,1996
2016-05-08T09:09:38.895Z,2004
2016-05-08T09:10:44.725Z,2004
2016-05-08T09:11:41.276Z,1996
2016-05-08T09:12:42.044Z,2004
2016-05-08T09:13:50.502Z,2000
2016-05-08T09:14:38.174Z,2000
2016-05-08T09:15:47.867Z,1992
2016-05-08T09:16:41.070Z,1992
2016-05-08T09:17:37.853Z,1992
2016-05-08T09:18:43.966Z,1996
2016-05-08T09:19:37.749Z,1992
2016-05-08T09:20:37.753Z,1992
2016-05-08T09:21:37.865Z,1992
2016-05-08T09:22:40.805Z,1992
2016-05-08T09:23:46.826Z,1996
2016-05-08T09:24:47.344Z,2000
2016-05-08T09:25:43.688Z,2000
2016-05-08T09:26:46.880Z,2004
2016-05-08T09:27:40.505Z,2000
2016-05-08T09:28:40.602Z,2000
2016-05-08T09:29:43.933Z,2000
2016-05-08T09:30:46.782Z,2008
2016-05-08T09:31:46.285Z,2008
2016-05-08T09:32:37.879Z,2008
2016-05-08T09:33:40.412Z,2004
2016-05-08T09:34:40.525Z,2012
2016-05-08T09:35:40.449Z,2012
2016-05-08T09:36:37.201Z,2016
2016-05-08T09:37:56.223Z,2008
2016-05-08T09:38:40.301Z,2000
2016-05-08T09:39:36.913Z,2000
2016-05-08T09:40:40.040Z,1996
2016-05-08T09:41:39.840Z,2008
2016-05-08T09:42:46.265Z,2012
2016-05-08T09:43:37.314Z,2004
2016-05-08T09:44:39.880Z,2004
2016-05-08T09:45:36.897Z,2008
2016-05-08T09:46:42.791Z,2008
2016-05-08T09:47:45.779Z,2024
2016-05-08T09:48:39.547Z,2020
2016-05-08T09:49:42.722Z,1996
2016-05-08T09:50:42.646Z,1992
2016-05-08T09:51:42.602Z,1988
2016-05-08T09:52:45.792Z,1976
2016-05-08T09:53:39.513Z,1964
2016-05-08T09:54:39.782Z,1960
2016-05-08T09:55:38.955Z,1956
2016-05-08T09:56:39.084Z,1944
2016-05-08T09:57:39.430Z,1948
2016-05-08T09:58:39.293Z,1952
2016-05-08T09:59:39.327Z,1956
2016-05-08T10:00:39.407Z,1952
2016-05-08T10:01:39.160Z,1960
2016-05-08T10:02:36.131Z,1956
2016-05-08T10:03:36.071Z,1956
2016-05-08T10:04:42.277Z,1944
2016-05-08T10:05:36.515Z,1936
2016-05-08T10:06:36.095Z,1948
2016-05-08T10:07:39.129Z,1952
2016-05-08T10:08:42.101Z,1936
2016-05-08T10:09:44.853Z,1948
2016-05-08T10:10:38.809Z,1940
2016-05-08T10:11:41.764Z,1952
2016-05-08T10:12:38.580Z,1940
2016-05-08T10:13:41.740Z,1928
2016-05-08T10:14:38.835Z,1924
2016-05-08T10:15:41.589Z,1924
2016-05-08T10:16:41.387Z,1924
2016-05-08T10:17:35.687Z,1920
2016-05-08T10:18:35.503Z,1924
2016-05-08T10:19:38.317Z,1940
2016-05-08T10:20:38.430Z,1944
2016-05-08T10:21:38.339Z,1960
2016-05-08T10:22:35.122Z,1976
2016-05-08T10:23:38.277Z,1996
2016-05-08T10:24:35.217Z,1996
2016-05-08T10:25:35.158Z,1996
2016-05-08T10:26:38.144Z,1992
2016-05-08T10:27:35.069Z,1992
2016-05-08T10:28:35.008Z,1996
2016-05-08T10:29:37.902Z,1988
2016-05-08T10:30:35.139Z,1992
2016-05-08T10:31:34.611Z,1984
2016-05-08T10:32:38.582Z,1980
2016-05-08T10:33:38.350Z,1980
2016-05-08T10:34:40.103Z,1972
2016-05-08T10:35:37.762Z,1968
2016-05-08T10:36:43.921Z,1976
2016-05-08T10:37:34.673Z,1976
2016-05-08T10:38:34.629Z,1984
2016-05-08T10:39:40.429Z,1996
2016-05-08T10:40:34.556Z,1996
2016-05-08T10:41:37.528Z,1988
2016-05-08T10:42:34.453Z,1984
2016-05-08T10:43:45.877Z,1988
2016-05-08T10:44:40.395Z,1980
2016-05-08T10:45:40.539Z,1980
2016-05-08T10:46:34.323Z,1976
2016-05-08T10:47:37.263Z,1972
2016-05-08T10:48:40.219Z,1976
2016-05-08T10:49:34.175Z,1984
2016-05-08T10:50:43.365Z,1988
2016-05-08T10:51:39.931Z,1988
2016-05-08T10:52:40.089Z,1984
2016-05-08T10:53:36.998Z,1976
2016-05-08T10:54:34.000Z,1984
2016-05-08T10:55:36.909Z,1976
2016-05-08T10:56:42.881Z,1984
2016-05-08T10:57:40.244Z,1984
2016-05-08T10:58:37.042Z,1992
2016-05-08T10:59:36.764Z,2000
2016-05-08T11:00:36.564Z,2000
2016-05-08T11:01:36.769Z,2004
2016-05-08T11:02:33.632Z,2008
2016-05-08T11:03:36.915Z,2012
2016-05-08T11:04:33.402Z,2016
2016-05-08T11:05:36.560Z,2024
2016-05-08T11:06:36.501Z,2036
2016-05-08T11:07:39.114Z,2020
2016-05-08T11:08:36.585Z,2028
2016-05-08T11:09:36.571Z,2032
2016-05-08T11:10:33.309Z,2032
2016-05-08T11:11:36.249Z,2028
2016-05-08T11:12:36.252Z,2032
2016-05-08T11:13:33.348Z,2032
2016-05-08T11:14:33.148Z,2048
2016-05-08T11:15:36.167Z,2056
2016-05-08T11:16:33.060Z,2064
2016-05-08T11:17:32.938Z,2068
2016-05-08T11:18:32.987Z,2080
2016-05-08T11:19:36.193Z,2100
2016-05-08T11:20:38.914Z,2112
2016-05-08T11:21:39.120Z,2112
2016-05-08T11:22:33.216Z,2120
2016-05-08T11:23:36.031Z,2132
2016-05-08T11:24:32.925Z,2136
2016-05-08T11:25:36.084Z,2136
2016-05-08T11:26:35.492Z,2124
2016-05-08T11:27:35.605Z,2096
2016-05-08T11:28:32.795Z,2084
2016-05-08T11:29:35.563Z,2096
2016-05-08T11:30:35.347Z,2108
2016-05-08T11:31:35.427Z,2124
2016-05-08T11:32:35.400Z,2124
2016-05-08T11:33:38.356Z,2124
2016-05-08T11:34:38.452Z,2128
2016-05-08T11:35:41.424Z,2140
2016-05-08T11:36:35.254Z,2148
2016-05-08T11:37:32.022Z,2144
2016-05-08T11:38:32.135Z,2144
2016-05-08T11:39:32.418Z,2136
2016-05-08T11:40:32.390Z,2132
2016-05-08T11:41:31.908Z,2140
2016-05-08T11:42:39.129Z,2168
2016-05-08T11:43:34.820Z,2184
2016-05-08T11:44:35.104Z,2180
2016-05-08T11:45:37.887Z,2164
2016-05-08T11:46:34.812Z,2168
2016-05-08T11:47:31.767Z,2176
2016-05-08T11:48:31.756Z,2172
2016-05-08T11:49:37.629Z,2240
2016-05-08T11:50:34.767Z,2252
2016-05-08T11:51:31.750Z,2264
2016-05-08T11:52:37.981Z,2276
2016-05-08T11:53:31.630Z,2280
2016-05-08T11:54:37.945Z,2300
2016-05-08T11:55:37.759Z,2316
2016-05-08T11:56:34.527Z,2320
2016-05-08T11:57:31.685Z,2324
2016-05-08T11:58:35.774Z,2340
2016-05-08T11:59:32.266Z,2352
2016-05-08T12:00:46.540Z,2356
2016-05-08T12:01:37.516Z,2356
2016-05-08T12:02:31.181Z,2372
2016-05-08T12:03:37.437Z,2384
2016-05-08T12:04:34.394Z,2392
2016-05-08T12:05:46.602Z,2428
2016-05-08T12:06:40.340Z,2452
2016-05-08T12:07:37.939Z,2456
2016-05-08T12:08:34.442Z,2460
2016-05-08T12:09:37.196Z,2468
2016-05-08T12:10:34.372Z,2476
2016-05-08T12:11:34.297Z,2480
2016-05-08T12:12:36.816Z,2480
2016-05-08T12:13:33.740Z,2488
2016-05-08T12:14:34.008Z,2504
2016-05-08T12:15:36.949Z,2508
2016-05-08T12:16:37.217Z,2512
2016-05-08T12:17:36.908Z,2512
2016-05-08T12:18:33.925Z,2516
2016-05-08T12:19:30.976Z,2528
2016-05-08T12:20:30.807Z,2532
2016-05-08T12:21:30.981Z,2532
2016-05-08T12:22:33.922Z,2532
2016-05-08T12:23:33.642Z,2528
2016-05-08T12:24:30.677Z,2528
2016-05-08T12:25:30.632Z,2532
2016-05-08T12:26:33.525Z,2532
2016-05-08T12:27:30.466Z,2540
2016-05-08T12:28:30.422Z,2528
2016-05-08T12:29:30.377Z,2532
2016-05-08T12:30:30.396Z,2528
2016-05-08T12:31:30.539Z,2536
2016-05-08T12:32:33.276Z,2548
2016-05-08T12:33:33.466Z,2552
2016-05-08T12:34:30.203Z,2572
2016-05-08T12:35:33.613Z,2580
2016-05-08T12:36:36.350Z,2584
2016-05-08T12:37:30.055Z,2596
2016-05-08T12:38:29.855Z,2588
2016-05-08T12:39:36.498Z,2600
2016-05-08T12:40:32.938Z,2604
2016-05-08T12:41:36.144Z,2616
2016-05-08T12:42:35.896Z,2632
2016-05-08T12:43:35.712Z,2644
2016-05-08T12:44:32.777Z,2652
2016-05-08T12:45:29.826Z,2672
2016-05-08T12:46:38.907Z,2680
2016-05-08T12:47:32.379Z,2700
2016-05-08T12:48:29.475Z,2708
2016-05-08T12:49:29.681Z,2720
2016-05-08T12:50:35.542Z,2716
2016-05-08T12:51:29.702Z,2716
2016-05-08T12:52:35.487Z,2720
2016-05-08T12:53:35.426Z,2716
2016-05-08T12:54:32.211Z,2736
2016-05-08T12:55:35.353Z,2728
2016-05-08T12:56:29.294Z,2732
2016-05-08T12:57:35.108Z,2740
2016-05-08T12:58:38.158Z,2732
2016-05-08T12:59:32.177Z,2744
2016-05-08T13:00:34.992Z,2712
2016-05-08T13:01:32.120Z,2748
2016-05-08T13:02:29.044Z,2748
2016-05-08T13:03:31.907Z,2740
2016-05-08T13:04:29.159Z,2744
2016-05-08T13:05:28.974Z,2756
2016-05-08T13:06:28.946Z,2772
2016-05-08T13:07:28.682Z,2772
2016-05-08T13:08:28.841Z,2772
2016-05-08T13:09:28.766Z,2772
2016-05-08T13:10:28.926Z,2784
2016-05-08T13:11:31.693Z,2804
2016-05-08T13:12:31.726Z,2820
2016-05-08T13:13:28.527Z,2828
2016-05-08T13:14:31.592Z,2824
2016-05-08T13:15:28.360Z,2836
2016-05-08T13:16:28.519Z,2848
2016-05-08T13:17:28.429Z,2848
2016-05-08T13:18:28.431Z,2852
2016-05-08T13:19:31.809Z,2860
2016-05-08T13:20:28.327Z,2864
2016-05-08T13:21:31.283Z,2872
2016-05-08T13:22:28.286Z,2876
2016-05-08T13:23:31.210Z,2896
2016-05-08T13:24:31.416Z,2904
2016-05-08T13:25:31.262Z,2916
2016-05-08T13:26:43.296Z,2792
2016-05-08T13:27:28.455Z,2704
2016-05-08T13:28:31.380Z,2840
2016-05-08T13:29:28.023Z,2828
2016-05-08T13:30:27.619Z,2828
2016-05-08T13:31:27.560Z,2836
2016-05-08T13:32:36.844Z,2848
2016-05-08T13:33:36.549Z,2844
2016-05-08T13:34:30.755Z,2852
2016-05-08T13:35:27.727Z,2856
2016-05-08T13:36:27.979Z,2848
2016-05-08T13:37:30.248Z,2840
2016-05-08T13:38:30.797Z,2848
2016-05-08T13:39:36.629Z,2848
2016-05-08T13:40:30.365Z,2836
2016-05-08T13:41:27.727Z,2852
2016-05-08T13:42:27.433Z,2856
2016-05-08T13:43:30.435Z,2868
2016-05-08T13:44:27.704Z,2884